createdAt,value
2018-10-11T00:00:44.779Z,0.00
2018-10-11T00:01:44.694Z,0.00
2018-10-11T00:07:31.893Z,0.00
2018-10-11T00:08:45.627Z,0.00
2018-10-11T00:09:30.862Z,0.00
2018-10-11T00:17:33.724Z,0.00
2018-10-11T00:18:31.881Z,0.00
2018-10-11T00:19:30.889Z,0.00
2018-10-11T00:20:28.870Z,0.00
2018-10-11T00:21:30.025Z,0.00
2018-10-11T00:22:29.820Z,0.00
2018-10-11T00:23:30.428Z,0.00
2018-10-11T00:24:33.443Z,0.00
2018-10-11T00:33:05.872Z,0.00
2018-10-11T00:33:47.377Z,0.00
2018-10-11T00:36:18.113Z,0.00
2018-10-11T01:00:02.276Z,0.00
2018-10-11T01:01:03.447Z,0.00
2018-10-11T01:04:12.412Z,0.00
2018-10-11T01:16:06.730Z,0.00
2018-10-11T01:18:24.728Z,0.00
2018-10-11T01:19:24.888Z,0.00
2018-10-11T01:20:24.814Z,0.00
2018-10-11T01:23:52.077Z,0.00
2018-10-11T01:26:30.419Z,0.00
2018-10-11T01:43:46.915Z,0.00
2018-10-11T01:44:46.377Z,0.00
2018-10-11T01:47:22.373Z,0.00
2018-10-11T01:48:21.607Z,0.00
2018-10-11T01:49:21.514Z,0.00
2018-10-11T01:53:19.929Z,0.00
2018-10-11T01:54:39.518Z,0.00
2018-10-11T01:55:20.165Z,0.00
2018-10-11T01:56:19.979Z,0.00
2018-10-11T01:57:20.625Z,0.00
2018-10-11T01:58:20.695Z,0.00
2018-10-11T01:59:19.872Z,0.00
2018-10-11T02:00:19.836Z,0.00
2018-10-11T02:01:34.367Z,0.00
2018-10-11T02:02:20.804Z,0.00
2018-10-11T02:03:20.319Z,0.00
2018-10-11T02:04:20.864Z,0.00
2018-10-11T02:05:19.893Z,0.00
2018-10-11T02:06:19.875Z,0.00
2018-10-11T02:07:19.897Z,0.00
2018-10-11T02:08:21.654Z,0.00
2018-10-11T02:09:28.171Z,0.00
2018-10-11T02:11:32.362Z,0.00
2018-10-11T02:12:55.829Z,0.00
2018-10-11T02:13:32.815Z,0.00
2018-10-11T02:14:56.026Z,0.00
2018-10-11T02:15:32.901Z,0.00
2018-10-11T02:16:31.853Z,0.00
2018-10-11T02:17:33.726Z,0.00
2018-10-11T02:18:38.736Z,0.00
2018-10-11T02:19:32.790Z,0.00
2018-10-11T02:20:32.749Z,0.00
2018-10-11T02:21:31.765Z,0.00
2018-10-11T02:22:32.824Z,0.00
2018-10-11T02:23:35.710Z,0.00
2018-10-11T02:29:11.687Z,0.00
2018-10-11T02:30:35.986Z,0.00
2018-10-11T02:31:09.161Z,0.00
2018-10-11T02:32:09.887Z,0.00
2018-10-11T02:35:18.141Z,0.00
2018-10-11T02:36:29.682Z,0.00
2018-10-11T02:37:29.156Z,0.00
2018-10-11T02:38:19.164Z,0.00
2018-10-11T02:39:18.273Z,0.00
2018-10-11T02:40:50.143Z,0.00
2018-10-11T02:41:20.899Z,0.00
2018-10-11T02:42:18.713Z,0.00
2018-10-11T02:43:17.654Z,0.00
2018-10-11T02:44:17.709Z,0.00
2018-10-11T02:47:17.191Z,0.00
2018-10-11T02:48:15.783Z,0.00
2018-10-11T02:50:34.700Z,0.00
2018-10-11T02:52:54.207Z,0.00
2018-10-11T02:56:47.897Z,0.00
2018-10-11T02:57:35.999Z,0.00
2018-10-11T02:58:48.336Z,0.00
2018-10-11T02:59:36.750Z,0.00
2018-10-11T03:00:36.274Z,0.00
2018-10-11T03:01:35.813Z,0.00
2018-10-11T03:02:53.798Z,0.00
2018-10-11T03:03:35.860Z,0.00
2018-10-11T03:04:36.670Z,0.00
2018-10-11T03:08:04.810Z,0.00
2018-10-11T03:16:09.142Z,0.00
2018-10-11T03:16:47.071Z,0.00
2018-10-11T03:19:19.181Z,0.00
2018-10-11T03:20:18.957Z,0.00
2018-10-11T03:21:18.888Z,0.00
2018-10-11T03:24:37.329Z,0.00
2018-10-11T03:37:29.105Z,0.00
2018-10-11T03:41:19.996Z,0.00
2018-10-11T03:42:06.515Z,0.00
2018-10-11T03:47:09.914Z,0.00
2018-10-11T03:48:08.130Z,0.00
2018-10-11T03:49:08.897Z,0.00
2018-10-11T03:50:30.852Z,0.00
2018-10-11T03:53:35.127Z,0.00
2018-10-11T03:56:57.618Z,0.00
2018-10-11T03:59:48.787Z,0.00
2018-10-11T04:03:41.943Z,0.00
2018-10-11T04:04:52.396Z,0.00
2018-10-11T04:05:39.076Z,0.00
2018-10-11T04:06:39.135Z,0.00
2018-10-11T04:08:55.348Z,0.00
2018-10-11T04:09:55.357Z,0.00
2018-10-11T04:10:56.090Z,0.00
2018-10-11T04:11:55.051Z,0.00
2018-10-11T04:12:54.853Z,0.00
2018-10-11T04:13:55.832Z,0.00
2018-10-11T04:15:04.057Z,0.00
2018-10-11T04:15:55.360Z,0.00
2018-10-11T04:16:55.494Z,0.00
2018-10-11T04:17:55.015Z,0.00
2018-10-11T04:18:55.031Z,0.00
2018-10-11T04:19:54.835Z,0.00
2018-10-11T04:20:54.870Z,0.00
2018-10-11T04:21:54.871Z,0.00
2018-10-11T04:22:54.891Z,0.00
2018-10-11T04:28:27.332Z,0.00
2018-10-11T04:29:25.371Z,0.00
2018-10-11T04:30:25.378Z,0.00
2018-10-11T04:32:44.778Z,0.00
2018-10-11T04:33:44.509Z,0.00
2018-10-11T04:35:28.688Z,0.00
2018-10-11T04:35:43.704Z,0.00
2018-10-11T04:38:39.310Z,0.00
2018-10-11T04:39:40.011Z,0.00
2018-10-11T04:40:40.000Z,0.00
2018-10-11T04:41:38.919Z,0.00
2018-10-11T04:42:40.086Z,0.00
2018-10-11T04:43:40.558Z,0.00
2018-10-11T04:44:38.945Z,0.00
2018-10-11T04:45:39.799Z,0.00
2018-10-11T04:48:32.821Z,0.00
2018-10-11T04:49:34.358Z,0.00
2018-10-11T04:50:33.836Z,0.00
2018-10-11T04:51:32.778Z,0.00
2018-10-11T04:52:32.806Z,0.00
2018-10-11T04:56:31.869Z,0.00
2018-10-11T04:57:31.991Z,0.00
2018-10-11T04:58:31.617Z,0.00
2018-10-11T04:59:31.651Z,0.00
2018-10-11T05:02:37.067Z,0.00
2018-10-11T05:03:44.695Z,0.00
2018-10-11T05:04:35.584Z,0.00
2018-10-11T05:05:35.846Z,0.00
2018-10-11T05:06:35.366Z,0.00
2018-10-11T05:07:35.191Z,0.00
2018-10-11T05:08:35.216Z,0.00
2018-10-11T05:09:35.168Z,0.00
2018-10-11T05:10:35.129Z,0.00
2018-10-11T05:11:37.007Z,0.00
2018-10-11T05:12:35.123Z,0.00
2018-10-11T05:13:35.084Z,0.00
2018-10-11T05:14:35.031Z,0.00
2018-10-11T05:15:35.052Z,0.00
2018-10-11T05:16:35.047Z,0.00
2018-10-11T05:17:35.062Z,0.00
2018-10-11T05:18:34.992Z,0.00
2018-10-11T05:19:35.955Z,0.00
2018-10-11T05:20:34.938Z,0.00
2018-10-11T05:21:36.013Z,0.00
2018-10-11T05:22:34.946Z,0.00
2018-10-11T05:23:34.993Z,0.00
2018-10-11T05:24:34.949Z,0.00
2018-10-11T05:25:34.926Z,0.00
2018-10-11T05:26:34.899Z,0.00
2018-10-11T05:27:34.907Z,0.00
2018-10-11T05:28:35.003Z,0.00
2018-10-11T05:29:34.892Z,0.00
2018-10-11T05:30:34.830Z,0.00
2018-10-11T05:31:34.834Z,0.00
2018-10-11T05:32:34.831Z,0.00
2018-10-11T05:33:34.821Z,5.62
2018-10-11T05:34:34.847Z,5.62
2018-10-11T05:35:34.804Z,5.62
2018-10-11T05:36:34.782Z,5.62
2018-10-11T05:37:34.777Z,5.62
2018-10-11T05:38:34.785Z,5.62
2018-10-11T05:39:34.763Z,5.62
2018-10-11T05:40:34.752Z,5.62
2018-10-11T05:41:34.773Z,5.62
2018-10-11T05:42:34.728Z,5.62
2018-10-11T05:43:34.711Z,5.62
2018-10-11T05:44:34.823Z,5.62
2018-10-11T05:45:34.703Z,5.62
2018-10-11T05:46:34.693Z,5.62
2018-10-11T05:47:34.684Z,5.62
2018-10-11T05:48:34.649Z,11.25
2018-10-11T05:49:35.658Z,11.25
2018-10-11T05:50:34.693Z,11.25
2018-10-11T05:51:34.648Z,11.25
2018-10-11T05:52:34.590Z,11.25
2018-10-11T05:53:34.573Z,11.25
2018-10-11T05:54:35.516Z,11.25
2018-10-11T05:55:34.665Z,11.25
2018-10-11T05:56:35.047Z,11.25
2018-10-11T05:57:34.558Z,11.25
2018-10-11T05:58:34.557Z,11.25
2018-10-11T05:59:34.553Z,11.25
2018-10-11T06:00:34.509Z,11.25
2018-10-11T06:01:34.504Z,11.25
2018-10-11T06:02:34.510Z,16.88
2018-10-11T06:03:34.547Z,16.88
2018-10-11T06:04:34.570Z,16.88
2018-10-11T06:05:34.453Z,16.88
2018-10-11T06:06:34.464Z,16.88
2018-10-11T06:07:34.514Z,16.88
2018-10-11T06:08:34.423Z,16.88
2018-10-11T06:09:34.372Z,16.88
2018-10-11T06:10:34.487Z,16.88
2018-10-11T06:11:34.357Z,16.88
2018-10-11T06:12:34.422Z,16.88
2018-10-11T06:13:34.978Z,16.88
2018-10-11T06:14:34.325Z,16.88
2018-10-11T06:15:34.332Z,16.88
2018-10-11T06:16:34.316Z,16.88
2018-10-11T06:17:34.303Z,16.88
2018-10-11T06:18:34.361Z,16.88
2018-10-11T06:19:34.333Z,16.88
2018-10-11T06:20:34.249Z,22.50
2018-10-11T06:21:34.278Z,22.50
2018-10-11T06:22:34.231Z,22.50
2018-10-11T06:23:34.256Z,22.50
2018-10-11T06:24:34.302Z,22.50
2018-10-11T06:25:55.329Z,22.50
2018-10-11T06:26:34.236Z,22.50
2018-10-11T06:27:34.201Z,22.50
2018-10-11T06:28:34.169Z,22.50
2018-10-11T06:29:34.243Z,22.50
2018-10-11T06:30:34.174Z,22.50
2018-10-11T06:31:34.122Z,22.50
2018-10-11T06:32:34.122Z,22.50
2018-10-11T06:33:34.136Z,22.50
2018-10-11T06:34:34.093Z,22.50
2018-10-11T06:35:34.146Z,22.50
2018-10-11T06:36:34.149Z,22.50
2018-10-11T06:37:34.056Z,22.50
2018-10-11T06:38:34.073Z,22.50
2018-10-11T06:39:34.063Z,22.50
2018-10-11T06:40:34.540Z,28.12
2018-10-11T06:41:34.055Z,28.12
2018-10-11T06:42:34.013Z,28.12
2018-10-11T06:43:34.034Z,28.12
2018-10-11T06:44:34.013Z,28.12
2018-10-11T06:45:34.012Z,28.12
2018-10-11T06:46:34.005Z,28.12
2018-10-11T06:47:33.946Z,28.12
2018-10-11T06:48:33.955Z,28.12
2018-10-11T06:49:33.915Z,28.12
2018-10-11T06:50:33.898Z,28.12
2018-10-11T06:51:33.899Z,28.12
2018-10-11T06:52:33.890Z,28.12
2018-10-11T06:53:33.877Z,28.12
2018-10-11T06:54:33.888Z,28.12
2018-10-11T06:55:33.913Z,28.12
2018-10-11T06:56:34.019Z,28.12
2018-10-11T06:57:33.888Z,28.12
2018-10-11T06:58:33.843Z,28.12
2018-10-11T06:59:33.814Z,28.12
2018-10-11T07:00:33.827Z,28.12
2018-10-11T07:01:33.804Z,28.12
2018-10-11T07:02:33.839Z,28.12
2018-10-11T07:03:33.781Z,28.12
2018-10-11T07:04:33.768Z,28.12
2018-10-11T07:05:33.761Z,28.12
2018-10-11T07:06:33.744Z,28.12
2018-10-11T07:07:33.784Z,28.12
2018-10-11T07:08:33.714Z,28.12
2018-10-11T07:09:33.712Z,28.12
2018-10-11T07:10:33.689Z,28.12
2018-10-11T07:11:33.688Z,28.12
2018-10-11T07:12:33.672Z,28.12
2018-10-11T07:13:33.743Z,28.12
2018-10-11T07:14:33.681Z,28.12
2018-10-11T07:15:33.675Z,28.12
2018-10-11T07:16:33.642Z,28.12
2018-10-11T07:17:33.641Z,28.12
2018-10-11T07:18:33.649Z,28.12
2018-10-11T07:19:33.894Z,28.12
2018-10-11T07:20:33.601Z,28.12
2018-10-11T07:21:33.570Z,28.12
2018-10-11T07:22:33.542Z,33.75
2018-10-11T07:23:33.568Z,33.75
2018-10-11T07:24:34.559Z,33.75
2018-10-11T07:29:40.584Z,33.75
2018-10-11T07:30:30.779Z,33.75
2018-10-11T07:31:30.426Z,33.75
2018-10-11T07:32:31.353Z,33.75
2018-10-11T07:33:30.363Z,33.75
2018-10-11T07:34:30.354Z,33.75
2018-10-11T07:35:30.373Z,33.75
2018-10-11T07:36:50.211Z,33.75
2018-10-11T07:37:30.730Z,33.75
2018-10-11T07:38:30.603Z,33.75
2018-10-11T07:39:31.696Z,33.75
2018-10-11T07:40:31.357Z,33.75
2018-10-11T07:41:31.277Z,33.75
2018-10-11T07:42:30.269Z,33.75
2018-10-11T07:43:30.187Z,33.75
2018-10-11T07:44:30.190Z,33.75
2018-10-11T07:45:30.702Z,33.75
2018-10-11T07:46:30.205Z,33.75
2018-10-11T07:47:30.225Z,33.75
2018-10-11T07:48:30.162Z,33.75
2018-10-11T07:49:30.789Z,33.75
2018-10-11T07:50:30.114Z,33.75
2018-10-11T07:51:30.143Z,33.75
2018-10-11T07:52:30.122Z,33.75
2018-10-11T07:53:30.096Z,33.75
2018-10-11T07:54:30.049Z,33.75
2018-10-11T07:55:30.060Z,33.75
2018-10-11T07:56:30.231Z,33.75
2018-10-11T07:57:30.722Z,33.75
2018-10-11T07:58:30.059Z,33.75
2018-10-11T07:59:30.028Z,33.75
2018-10-11T08:00:30.035Z,33.75
2018-10-11T08:01:30.042Z,33.75
2018-10-11T08:02:31.061Z,33.75
2018-10-11T08:03:30.998Z,33.75
2018-10-11T08:04:30.010Z,33.75
2018-10-11T08:05:29.950Z,33.75
2018-10-11T08:06:29.955Z,33.75
2018-10-11T08:07:30.094Z,33.75
2018-10-11T08:08:30.039Z,33.75
2018-10-11T08:09:29.905Z,33.75
2018-10-11T08:10:40.917Z,33.75
2018-10-11T08:11:29.947Z,33.75
2018-10-11T08:12:29.838Z,33.75
2018-10-11T08:13:29.957Z,33.75
2018-10-11T08:14:29.861Z,33.75
2018-10-11T08:15:29.839Z,33.75
2018-10-11T08:16:29.889Z,33.75
2018-10-11T08:17:30.351Z,33.75
2018-10-11T08:18:29.884Z,33.75
2018-10-11T08:19:30.056Z,33.75
2018-10-11T08:20:29.769Z,33.75
2018-10-11T08:21:29.790Z,39.38
2018-10-11T08:22:29.718Z,39.38
2018-10-11T08:23:29.703Z,39.38
2018-10-11T08:24:30.068Z,39.38
2018-10-11T08:25:29.939Z,39.38
2018-10-11T08:26:31.042Z,39.38
2018-10-11T08:27:29.704Z,39.38
2018-10-11T08:28:29.645Z,39.38
2018-10-11T08:29:29.674Z,39.38
2018-10-11T08:30:29.675Z,33.75
2018-10-11T08:31:29.676Z,33.75
2018-10-11T08:32:29.860Z,33.75
2018-10-11T08:33:29.655Z,39.38
2018-10-11T08:34:29.643Z,39.38
2018-10-11T08:35:29.658Z,39.38
2018-10-11T08:36:29.638Z,39.38
2018-10-11T08:37:29.661Z,39.38
2018-10-11T08:38:29.678Z,39.38
2018-10-11T08:39:29.586Z,39.38
2018-10-11T08:42:13.471Z,39.38
2018-10-11T08:42:43.873Z,39.38
2018-10-11T08:43:43.829Z,39.38
2018-10-11T08:44:44.208Z,39.38
2018-10-11T08:45:43.852Z,39.38
2018-10-11T08:46:44.586Z,39.38
2018-10-11T08:47:45.724Z,39.38
2018-10-11T08:48:43.711Z,39.38
2018-10-11T08:49:43.759Z,39.38
2018-10-11T08:50:43.720Z,39.38
2018-10-11T08:51:43.678Z,39.38
2018-10-11T08:52:43.699Z,39.38
2018-10-11T08:53:43.801Z,39.38
2018-10-11T08:54:45.750Z,39.38
2018-10-11T08:57:01.261Z,39.38
2018-10-11T08:58:01.333Z,39.38
2018-10-11T08:59:01.097Z,39.38
2018-10-11T09:00:01.059Z,39.38
2018-10-11T09:01:00.817Z,39.38
2018-10-11T09:02:00.787Z,39.38
2018-10-11T09:03:00.854Z,39.38
2018-10-11T09:04:00.912Z,39.38
2018-10-11T09:05:01.000Z,39.38
2018-10-11T09:06:00.838Z,39.38
2018-10-11T09:07:00.818Z,39.38
2018-10-11T09:08:02.611Z,39.38
2018-10-11T09:09:00.726Z,39.38
2018-10-11T09:10:00.772Z,39.38
2018-10-11T09:11:00.769Z,39.38
2018-10-11T09:12:00.735Z,39.38
2018-10-11T09:13:02.656Z,39.38
2018-10-11T09:14:01.699Z,39.38
2018-10-11T09:15:00.686Z,39.38
2018-10-11T09:16:00.699Z,39.38
2018-10-11T09:17:00.650Z,39.38
2018-10-11T09:18:00.638Z,39.38
2018-10-11T09:19:00.670Z,39.38
2018-10-11T09:20:00.616Z,39.38
2018-10-11T09:21:01.608Z,39.38
2018-10-11T09:22:00.592Z,39.38
2018-10-11T09:23:01.681Z,39.38
2018-10-11T09:24:00.566Z,39.38
2018-10-11T09:25:00.600Z,39.38
2018-10-11T09:26:00.641Z,39.38
2018-10-11T09:27:00.578Z,39.38
2018-10-11T09:28:01.503Z,39.38
2018-10-11T09:29:00.595Z,39.38
2018-10-11T09:30:02.073Z,39.38
2018-10-11T09:31:01.469Z,39.38
2018-10-11T09:32:00.517Z,39.38
2018-10-11T09:33:00.629Z,39.38
2018-10-11T09:34:01.092Z,39.38
2018-10-11T09:35:00.475Z,39.38
2018-10-11T09:36:00.477Z,39.38
2018-10-11T09:37:00.462Z,39.38
2018-10-11T09:38:00.441Z,39.38
2018-10-11T09:39:01.384Z,39.38
2018-10-11T09:40:01.055Z,39.38
2018-10-11T09:41:21.480Z,39.38
2018-10-11T09:42:01.336Z,39.38
2018-10-11T09:43:00.370Z,39.38
2018-10-11T09:44:00.369Z,39.38
2018-10-11T09:45:00.313Z,39.38
2018-10-11T09:46:00.433Z,39.38
2018-10-11T09:47:00.297Z,39.38
2018-10-11T09:48:00.276Z,39.38
2018-10-11T09:49:00.277Z,39.38
2018-10-11T09:50:00.301Z,39.38
2018-10-11T09:51:00.282Z,39.38
2018-10-11T09:52:00.250Z,39.38
2018-10-11T09:53:00.272Z,39.38
2018-10-11T09:54:00.260Z,39.38
2018-10-11T09:55:00.257Z,39.38
2018-10-11T09:56:01.403Z,39.38
2018-10-11T09:57:00.213Z,39.38
2018-10-11T09:58:00.563Z,39.38
2018-10-11T09:59:00.288Z,39.38
2018-10-11T10:00:00.153Z,39.38
2018-10-11T10:01:00.186Z,39.38
2018-10-11T10:02:00.178Z,39.38
2018-10-11T10:03:00.176Z,39.38
2018-10-11T10:04:01.130Z,39.38
2018-10-11T10:05:01.212Z,39.38
2018-10-11T10:06:00.190Z,45.00
2018-10-11T10:07:01.041Z,45.00
2018-10-11T10:08:00.145Z,45.00
2018-10-11T10:09:00.086Z,45.00
2018-10-11T10:10:00.091Z,45.00
2018-10-11T10:11:21.160Z,45.00
2018-10-11T10:12:00.649Z,45.00
2018-10-11T10:13:00.073Z,45.00
2018-10-11T10:14:00.592Z,45.00
2018-10-11T10:15:00.012Z,45.00
2018-10-11T10:16:00.060Z,45.00
2018-10-11T10:17:00.070Z,45.00
2018-10-11T10:17:59.998Z,45.00
2018-10-11T10:18:59.980Z,45.00
2018-10-11T10:19:59.987Z,45.00
2018-10-11T10:21:00.076Z,45.00
2018-10-11T10:21:59.934Z,45.00
2018-10-11T10:22:59.972Z,45.00
2018-10-11T10:24:00.942Z,45.00
2018-10-11T10:24:59.883Z,45.00
2018-10-11T10:26:00.576Z,45.00
2018-10-11T10:27:00.050Z,45.00
2018-10-11T10:27:59.862Z,45.00
2018-10-11T10:28:59.941Z,45.00
2018-10-11T10:29:59.943Z,45.00
2018-10-11T10:30:59.896Z,45.00
2018-10-11T10:31:59.893Z,45.00
2018-10-11T10:32:59.872Z,45.00
2018-10-11T10:33:59.849Z,45.00
2018-10-11T10:34:59.808Z,39.38
2018-10-11T10:35:59.773Z,39.38
2018-10-11T10:36:59.876Z,39.38
2018-10-11T10:37:59.764Z,39.38
2018-10-11T10:38:59.730Z,39.38
2018-10-11T10:39:59.812Z,39.38
2018-10-11T10:40:59.724Z,39.38
2018-10-11T10:41:59.701Z,39.38
2018-10-11T10:42:59.762Z,39.38
2018-10-11T10:43:59.693Z,39.38
2018-10-11T10:44:59.621Z,39.38
2018-10-11T10:45:59.684Z,39.38
2018-10-11T10:46:59.673Z,39.38
2018-10-11T10:47:59.588Z,39.38
2018-10-11T10:49:00.620Z,39.38
2018-10-11T10:49:59.633Z,39.38
2018-10-11T10:50:59.608Z,39.38
2018-10-11T10:51:59.575Z,39.38
2018-10-11T10:53:00.082Z,45.00
2018-10-11T10:53:59.699Z,45.00
2018-10-11T10:54:59.593Z,45.00
2018-10-11T10:55:59.523Z,45.00
2018-10-11T10:56:59.593Z,45.00
2018-10-11T10:57:59.517Z,45.00
2018-10-11T10:58:59.510Z,45.00
2018-10-11T10:59:59.516Z,45.00
2018-10-11T11:00:59.456Z,45.00
2018-10-11T11:01:59.490Z,45.00
2018-10-11T11:02:59.591Z,45.00
2018-10-11T11:04:00.556Z,45.00
2018-10-11T11:05:00.474Z,45.00
2018-10-11T11:05:59.737Z,45.00
2018-10-11T11:06:59.449Z,45.00
2018-10-11T11:07:59.548Z,50.62
2018-10-11T11:08:59.596Z,50.62
2018-10-11T11:09:59.394Z,50.62
2018-10-11T11:12:46.025Z,50.62
2018-10-11T11:13:21.436Z,50.62
2018-10-11T11:14:22.335Z,50.62
2018-10-11T11:15:20.912Z,50.62
2018-10-11T11:16:20.897Z,50.62
2018-10-11T11:17:20.827Z,50.62
2018-10-11T11:18:22.073Z,50.62
2018-10-11T11:19:20.812Z,50.62
2018-10-11T11:20:20.894Z,50.62
2018-10-11T11:21:20.946Z,50.62
2018-10-11T11:22:20.967Z,50.62
2018-10-11T11:23:22.065Z,56.25
2018-10-11T11:24:21.341Z,56.25
2018-10-11T11:25:20.896Z,56.25
2018-10-11T11:26:20.813Z,56.25
2018-10-11T11:27:20.724Z,56.25
2018-10-11T11:28:20.733Z,56.25
2018-10-11T11:29:20.720Z,56.25
2018-10-11T11:30:20.694Z,56.25
2018-10-11T11:31:20.727Z,56.25
2018-10-11T11:32:21.367Z,56.25
2018-10-11T11:33:20.633Z,56.25
2018-10-11T11:34:20.668Z,56.25
2018-10-11T11:35:20.625Z,61.88
2018-10-11T11:36:20.661Z,61.88
2018-10-11T11:37:20.602Z,61.88
2018-10-11T11:38:20.637Z,61.88
2018-10-11T11:39:20.742Z,61.88
2018-10-11T11:40:20.655Z,61.88
2018-10-11T11:41:41.628Z,61.88
2018-10-11T11:42:20.595Z,61.88
2018-10-11T11:43:20.515Z,61.88
2018-10-11T11:44:20.682Z,61.88
2018-10-11T11:45:20.609Z,61.88
2018-10-11T11:46:20.679Z,61.88
2018-10-11T11:47:20.541Z,61.88
2018-10-11T11:48:20.461Z,61.88
2018-10-11T11:49:20.486Z,61.88
2018-10-11T11:50:20.451Z,61.88
2018-10-11T11:51:20.448Z,61.88
2018-10-11T11:52:20.466Z,61.88
2018-10-11T11:53:20.485Z,61.88
2018-10-11T11:54:20.382Z,61.88
2018-10-11T11:55:20.423Z,61.88
2018-10-11T11:56:21.924Z,61.88
2018-10-11T11:57:20.423Z,67.50
2018-10-11T11:58:20.359Z,67.50
2018-10-11T11:59:20.365Z,67.50
2018-10-11T12:00:20.349Z,67.50
2018-10-11T12:01:20.346Z,67.50
2018-10-11T12:02:20.323Z,67.50
2018-10-11T12:03:20.494Z,67.50
2018-10-11T12:04:21.300Z,67.50
2018-10-11T12:05:20.306Z,67.50
2018-10-11T12:06:20.371Z,67.50
2018-10-11T12:07:20.357Z,73.12
2018-10-11T12:08:20.360Z,73.12
2018-10-11T12:09:20.263Z,73.12
2018-10-11T12:10:21.233Z,73.12
2018-10-11T12:11:41.334Z,73.12
2018-10-11T12:12:20.221Z,73.12
2018-10-11T12:13:20.502Z,73.12
2018-10-11T12:14:20.179Z,73.12
2018-10-11T12:15:20.146Z,73.12
2018-10-11T12:16:20.199Z,73.12
2018-10-11T12:17:20.219Z,73.12
2018-10-11T12:18:20.132Z,78.75
2018-10-11T12:19:20.146Z,78.75
2018-10-11T12:20:20.158Z,78.75
2018-10-11T12:21:20.365Z,78.75
2018-10-11T12:22:20.218Z,78.75
2018-10-11T12:23:20.125Z,78.75
2018-10-11T12:24:20.099Z,78.75
2018-10-11T12:25:20.121Z,78.75
2018-10-11T12:26:20.065Z,78.75
2018-10-11T12:27:21.154Z,78.75
2018-10-11T12:28:20.135Z,78.75
2018-10-11T12:29:20.137Z,78.75
2018-10-11T12:30:20.076Z,78.75
2018-10-11T12:31:20.045Z,78.75
2018-10-11T12:32:19.959Z,78.75
2018-10-11T12:33:20.042Z,78.75
2018-10-11T12:34:19.995Z,84.38
2018-10-11T12:35:19.928Z,78.75
2018-10-11T12:36:19.954Z,84.38
2018-10-11T12:37:19.935Z,78.75
2018-10-11T12:38:19.946Z,84.38
2018-10-11T12:39:19.961Z,84.38
2018-10-11T12:40:20.026Z,84.38
2018-10-11T12:41:19.943Z,84.38
2018-10-11T12:42:19.964Z,84.38
2018-10-11T12:43:19.895Z,84.38
2018-10-11T12:44:19.883Z,84.38
2018-10-11T12:45:19.892Z,84.38
2018-10-11T12:46:19.885Z,84.38
2018-10-11T12:47:19.844Z,84.38
2018-10-11T12:48:19.833Z,84.38
2018-10-11T12:49:19.985Z,84.38
2018-10-11T12:50:19.831Z,84.38
2018-10-11T12:51:19.869Z,84.38
2018-10-11T12:52:20.979Z,84.38
2018-10-11T12:53:19.855Z,84.38
2018-10-11T12:54:20.798Z,84.38
2018-10-11T12:55:19.778Z,84.38
2018-10-11T12:56:19.803Z,84.38
2018-10-11T12:57:21.110Z,78.75
2018-10-11T12:58:19.757Z,78.75
2018-10-11T12:59:19.756Z,78.75
2018-10-11T13:00:19.721Z,78.75
2018-10-11T13:01:21.129Z,78.75
2018-10-11T13:02:19.679Z,78.75
2018-10-11T13:03:19.763Z,78.75
2018-10-11T13:04:19.681Z,78.75
2018-10-11T13:05:19.674Z,78.75
2018-10-11T13:06:19.589Z,78.75
2018-10-11T13:07:19.619Z,78.75
2018-10-11T13:08:19.980Z,78.75
2018-10-11T13:09:19.657Z,78.75
2018-10-11T13:10:19.557Z,78.75
2018-10-11T13:11:19.649Z,78.75
2018-10-11T13:12:19.591Z,78.75
2018-10-11T13:13:19.570Z,84.38
2018-10-11T13:14:19.546Z,84.38
2018-10-11T13:15:20.537Z,84.38
2018-10-11T13:16:19.518Z,84.38
2018-10-11T13:17:19.517Z,84.38
2018-10-11T13:18:19.500Z,84.38
2018-10-11T13:19:19.930Z,84.38
2018-10-11T13:20:19.459Z,84.38
2018-10-11T13:21:19.515Z,84.38
2018-10-11T13:22:19.513Z,84.38
2018-10-11T13:23:19.441Z,84.38
2018-10-11T13:24:19.432Z,84.38
2018-10-11T13:25:19.475Z,84.38
2018-10-11T13:26:19.452Z,84.38
2018-10-11T13:27:19.429Z,84.38
2018-10-11T13:28:19.394Z,84.38
2018-10-11T13:29:19.413Z,84.38
2018-10-11T13:30:19.419Z,84.38
2018-10-11T13:31:19.359Z,90.00
2018-10-11T13:32:19.330Z,90.00
2018-10-11T13:33:19.375Z,90.00
2018-10-11T13:34:19.318Z,90.00
2018-10-11T13:35:19.341Z,90.00
2018-10-11T13:36:19.358Z,90.00
2018-10-11T13:37:19.310Z,90.00
2018-10-11T13:38:19.237Z,90.00
2018-10-11T13:39:19.269Z,90.00
2018-10-11T13:40:19.271Z,90.00
2018-10-11T13:41:19.407Z,90.00
2018-10-11T13:42:19.280Z,90.00
2018-10-11T13:43:19.261Z,90.00
2018-10-11T13:44:19.208Z,90.00
2018-10-11T13:45:19.302Z,90.00
2018-10-11T13:46:19.176Z,90.00
2018-10-11T13:47:19.217Z,90.00
2018-10-11T13:48:20.137Z,95.62
2018-10-11T13:49:19.175Z,95.62
2018-10-11T13:50:19.119Z,95.62
2018-10-11T13:51:19.150Z,95.62
2018-10-11T13:52:21.684Z,95.62
2018-10-11T13:53:21.324Z,95.62
2018-10-11T13:54:19.162Z,95.62
2018-10-11T13:55:19.110Z,95.62
2018-10-11T13:56:19.150Z,95.62
2018-10-11T13:57:22.783Z,95.62
2018-10-11T13:58:20.022Z,95.62
2018-10-11T13:59:19.118Z,95.62
2018-10-11T14:00:19.011Z,95.62
2018-10-11T14:01:19.010Z,95.62
2018-10-11T14:02:19.013Z,95.62
2018-10-11T14:03:18.959Z,95.62
2018-10-11T14:04:19.016Z,95.62
2018-10-11T14:05:19.015Z,95.62
2018-10-11T14:06:19.027Z,95.62
2018-10-11T14:07:18.924Z,95.62
2018-10-11T14:08:18.921Z,95.62
2018-10-11T14:09:18.895Z,95.62
2018-10-11T14:10:18.927Z,95.62
2018-10-11T14:11:18.953Z,95.62
2018-10-11T14:12:18.872Z,95.62
2018-10-11T14:13:20.688Z,95.62
2018-10-11T14:14:19.875Z,95.62
2018-10-11T14:15:18.832Z,95.62
2018-10-11T14:16:18.837Z,95.62
2018-10-11T14:17:18.864Z,95.62
2018-10-11T14:18:18.824Z,95.62
2018-10-11T14:19:18.779Z,95.62
2018-10-11T14:20:18.799Z,95.62
2018-10-11T14:21:18.815Z,95.62
2018-10-11T14:22:18.776Z,95.62
2018-10-11T14:23:19.966Z,95.62
2018-10-11T14:24:18.755Z,95.62
2018-10-11T14:25:18.794Z,95.62
2018-10-11T14:26:18.703Z,95.62
2018-10-11T14:27:18.709Z,95.62
2018-10-11T14:28:18.869Z,95.62
2018-10-11T14:29:18.766Z,95.62
2018-10-11T14:30:18.874Z,95.62
2018-10-11T14:31:18.695Z,95.62
2018-10-11T14:32:18.730Z,90.00
2018-10-11T14:33:18.637Z,90.00
2018-10-11T14:34:18.987Z,90.00
2018-10-11T14:35:18.642Z,90.00
2018-10-11T14:36:18.645Z,90.00
2018-10-11T14:37:18.733Z,90.00
2018-10-11T14:38:18.634Z,90.00
2018-10-11T14:39:19.128Z,90.00
2018-10-11T14:40:18.539Z,90.00
2018-10-11T14:41:18.547Z,90.00
2018-10-11T14:42:18.586Z,90.00
2018-10-11T14:43:18.582Z,90.00
2018-10-11T14:44:18.505Z,90.00
2018-10-11T14:45:18.562Z,90.00
2018-10-11T14:46:18.543Z,90.00
2018-10-11T14:47:18.477Z,84.38
2018-10-11T14:48:18.521Z,90.00
2018-10-11T14:49:18.556Z,84.38
2018-10-11T14:50:19.581Z,84.38
2018-10-11T14:51:18.580Z,84.38
2018-10-11T14:52:18.557Z,84.38
2018-10-11T14:53:18.587Z,84.38
2018-10-11T14:56:51.610Z,84.38
2018-10-11T14:57:45.156Z,84.38
2018-10-11T14:58:45.149Z,84.38
2018-10-11T14:59:45.441Z,78.75
2018-10-11T15:00:45.269Z,78.75
2018-10-11T15:01:46.893Z,78.75
2018-10-11T15:02:46.157Z,78.75
2018-10-11T15:03:45.056Z,78.75
2018-10-11T15:04:45.139Z,78.75
2018-10-11T15:05:45.376Z,78.75
2018-10-11T15:06:45.238Z,78.75
2018-10-11T15:07:45.420Z,73.12
2018-10-11T15:08:45.257Z,73.12
2018-10-11T15:09:45.049Z,73.12
2018-10-11T15:10:45.095Z,73.12
2018-10-11T15:11:46.295Z,73.12
2018-10-11T15:12:46.034Z,73.12
2018-10-11T15:13:46.988Z,67.50
2018-10-11T15:14:44.986Z,67.50
2018-10-11T15:15:45.044Z,67.50
2018-10-11T15:16:44.954Z,67.50
2018-10-11T15:17:45.015Z,67.50
2018-10-11T15:18:45.183Z,67.50
2018-10-11T15:19:46.595Z,67.50
2018-10-11T15:20:45.176Z,61.88
2018-10-11T15:21:44.949Z,61.88
2018-10-11T15:22:45.653Z,61.88
2018-10-11T15:23:45.078Z,61.88
2018-10-11T15:24:46.536Z,61.88
2018-10-11T15:25:44.825Z,61.88
2018-10-11T15:28:26.201Z,56.25
2018-10-11T15:29:19.705Z,56.25
2018-10-11T15:30:19.263Z,56.25
2018-10-11T15:31:19.292Z,56.25
2018-10-11T15:32:19.164Z,56.25
2018-10-11T15:33:19.099Z,50.62
2018-10-11T15:34:19.036Z,50.62
2018-10-11T15:35:19.097Z,50.62
2018-10-11T15:36:19.146Z,45.00
2018-10-11T15:37:19.067Z,45.00
2018-10-11T15:38:18.978Z,45.00
2018-10-11T15:39:19.072Z,45.00
2018-10-11T15:40:19.016Z,45.00
2018-10-11T15:41:39.996Z,39.38
2018-10-11T15:42:18.999Z,39.38
2018-10-11T15:43:19.060Z,39.38
2018-10-11T15:44:18.985Z,33.75
2018-10-11T15:45:19.072Z,33.75